createdAt,value
2017-12-02T00:01:55.401Z,102556.63
2017-12-02T00:04:23.727Z,102558.31
2017-12-02T00:06:53.396Z,102559.73
2017-12-02T00:09:21.738Z,102555.89
2017-12-02T00:11:50.045Z,102559.03
2017-12-02T00:14:18.347Z,102565.13
2017-12-02T00:16:46.684Z,102561.11
2017-12-02T00:19:15.778Z,102560.53
2017-12-02T00:21:44.864Z,102564.75
2017-12-02T00:24:13.928Z,102561.58
2017-12-02T00:26:42.294Z,102561.20
2017-12-02T00:29:10.637Z,102560.79
2017-12-02T00:31:38.967Z,102570.02
2017-12-02T00:34:07.320Z,102573.93
2017-12-02T00:36:35.646Z,102576.88
2017-12-02T00:39:03.948Z,102574.92
2017-12-02T00:41:33.017Z,102575.66
2017-12-02T00:44:01.397Z,102567.07
2017-12-02T00:46:29.664Z,102566.96
2017-12-02T00:48:57.989Z,102571.40
2017-12-02T00:51:27.066Z,102568.59
2017-12-02T00:53:55.380Z,102573.92
2017-12-02T00:56:25.028Z,102572.19
2017-12-02T00:58:53.368Z,102573.81
2017-12-02T01:01:22.429Z,102584.02
2017-12-02T01:03:50.756Z,102589.18
2017-12-02T01:06:19.840Z,102593.56
2017-12-02T01:08:48.918Z,102591.19
2017-12-02T01:11:17.244Z,102584.89
2017-12-02T01:13:45.556Z,102587.39
2017-12-02T01:16:13.881Z,102595.63
2017-12-02T01:18:42.972Z,102590.77
2017-12-02T01:21:12.045Z,102602.59
2017-12-02T01:23:40.367Z,102600.69
2017-12-02T01:26:09.464Z,102602.33
2017-12-02T01:28:38.546Z,102601.84
2017-12-02T01:31:08.373Z,102608.28
2017-12-02T01:33:37.439Z,102611.03
2017-12-02T01:36:05.758Z,102617.69
2017-12-02T01:38:34.814Z,102614.63
2017-12-02T01:41:03.154Z,102616.95
2017-12-02T01:43:31.486Z,102617.23
2017-12-02T01:45:59.793Z,102628.09
2017-12-02T01:48:28.902Z,102630.16
2017-12-02T01:50:57.963Z,102638.88
2017-12-02T01:53:26.282Z,102637.02
2017-12-02T01:55:54.618Z,102638.97
2017-12-02T01:58:22.958Z,102643.77
2017-12-02T02:00:52.314Z,102644.56
2017-12-02T02:03:20.629Z,102642.88
2017-12-02T02:05:49.714Z,102642.92
2017-12-02T02:08:18.786Z,102649.10
2017-12-02T02:10:47.096Z,102650.48
2017-12-02T02:13:16.152Z,102641.92
2017-12-02T02:15:44.487Z,102645.62
2017-12-02T02:18:12.815Z,102649.11
2017-12-02T02:20:41.116Z,102644.86
2017-12-02T02:23:10.945Z,102648.20
2017-12-02T02:25:40.134Z,102646.73
2017-12-02T02:28:09.232Z,102645.78
2017-12-02T02:30:38.312Z,102648.20
2017-12-02T02:33:06.633Z,102652.47
2017-12-02T02:35:35.748Z,102650.72
2017-12-02T02:38:04.146Z,102653.99
2017-12-02T02:40:32.460Z,102649.85
2017-12-02T02:43:00.775Z,102656.29
2017-12-02T02:45:29.877Z,102645.52
2017-12-02T02:47:58.972Z,102657.34
2017-12-02T02:50:28.044Z,102658.66
2017-12-02T02:52:56.375Z,102660.87
2017-12-02T02:55:24.700Z,102662.20
2017-12-02T02:57:53.036Z,102664.09
2017-12-02T03:00:21.348Z,102664.56
2017-12-02T03:02:49.682Z,102664.98
2017-12-02T03:05:18.784Z,102665.60
2017-12-02T03:07:47.122Z,102669.72
2017-12-02T03:10:15.448Z,102669.87
2017-12-02T03:12:43.804Z,102668.28
2017-12-02T03:15:12.898Z,102663.21
2017-12-02T03:17:41.228Z,102665.06
2017-12-02T03:20:09.564Z,102659.83
2017-12-02T03:22:38.632Z,102664.03
2017-12-02T03:25:06.957Z,102663.98
2017-12-02T03:27:36.064Z,102664.82
2017-12-02T03:30:04.368Z,102665.53
2017-12-02T03:32:32.686Z,102668.73
2017-12-02T03:35:01.037Z,102667.88
2017-12-02T03:37:29.342Z,102670.52
2017-12-02T03:39:57.683Z,102672.39
2017-12-02T03:42:26.022Z,102665.38
2017-12-02T03:44:55.094Z,102659.59
2017-12-02T03:47:23.422Z,102660.70
2017-12-02T03:49:52.504Z,102663.91
2017-12-02T03:52:21.612Z,102663.06
2017-12-02T03:54:50.798Z,102658.06
2017-12-02T03:57:19.896Z,102657.56
2017-12-02T03:59:48.224Z,102652.41
2017-12-02T04:02:16.560Z,102655.02
2017-12-02T04:04:44.925Z,102658.92
2017-12-02T04:07:13.254Z,102654.47
2017-12-02T04:09:41.562Z,102656.31
2017-12-02T04:12:09.874Z,102660.91
2017-12-02T04:14:38.211Z,102663.76
2017-12-02T04:17:06.596Z,102665.20
2017-12-02T04:19:34.915Z,102663.78
2017-12-02T04:22:03.248Z,102670.95
2017-12-02T04:24:31.557Z,102675.88
2017-12-02T04:26:59.890Z,102683.98
2017-12-02T04:29:28.315Z,102688.95
2017-12-02T04:31:56.619Z,102693.12
2017-12-02T04:34:24.934Z,102689.20
2017-12-02T04:36:54.010Z,102685.81
2017-12-02T04:39:23.116Z,102691.20
2017-12-02T04:41:52.373Z,102696.21
2017-12-02T04:44:20.702Z,102698.78
2017-12-02T04:46:49.818Z,102695.78
2017-12-02T04:49:18.138Z,102705.23
2017-12-02T04:51:46.851Z,102703.52
2017-12-02T04:54:15.162Z,102704.83
2017-12-02T04:56:43.498Z,102708.52
2017-12-02T04:59:11.796Z,102708.88
2017-12-02T05:01:40.142Z,102705.86
2017-12-02T05:04:08.458Z,102699.91
2017-12-02T05:06:36.772Z,102708.86
2017-12-02T05:09:05.846Z,102707.25
2017-12-02T05:11:34.164Z,102707.14
2017-12-02T05:14:02.486Z,102704.69
2017-12-02T05:16:30.812Z,102705.28
2017-12-02T05:18:59.898Z,102711.92
2017-12-02T05:21:28.966Z,102723.23
2017-12-02T05:23:57.316Z,102722.39
2017-12-02T05:26:25.642Z,102726.39
2017-12-02T05:28:54.728Z,102722.24
2017-12-02T05:31:23.046Z,102726.03
2017-12-02T05:33:52.134Z,102723.75
2017-12-02T05:36:21.238Z,102725.21
2017-12-02T05:38:50.324Z,102722.20
2017-12-02T05:41:18.619Z,102719.93
2017-12-02T05:43:47.690Z,102720.02
2017-12-02T05:46:17.603Z,102727.87
2017-12-02T05:48:46.270Z,102729.79
2017-12-02T05:51:14.721Z,102731.25
2017-12-02T05:53:43.033Z,102735.76
2017-12-02T05:56:11.340Z,102725.88
2017-12-02T05:58:39.639Z,102732.97
2017-12-02T06:01:08.755Z,102741.19
2017-12-02T06:03:37.931Z,102738.80
2017-12-02T06:06:06.322Z,102739.02
2017-12-02T06:08:35.450Z,102736.75
2017-12-02T06:11:03.756Z,102729.52
2017-12-02T06:13:32.058Z,102743.40
2017-12-02T06:16:01.934Z,102746.62
2017-12-02T06:18:30.276Z,102750.34
2017-12-02T06:20:59.604Z,102753.72
2017-12-02T06:23:27.920Z,102756.84
2017-12-02T06:25:56.280Z,102760.53
2017-12-02T06:28:24.780Z,102763.72
2017-12-02T06:30:53.094Z,102770.65
2017-12-02T06:33:22.169Z,102768.52
2017-12-02T06:35:50.485Z,102777.88
2017-12-02T06:38:19.555Z,102776.23
2017-12-02T06:40:47.890Z,102780.89
2017-12-02T06:43:16.202Z,102773.13
2017-12-02T06:45:44.541Z,102773.97
2017-12-02T06:48:12.842Z,102768.73
2017-12-02T06:50:41.177Z,102776.41
2017-12-02T06:53:09.522Z,102767.51
2017-12-02T06:55:37.854Z,102769.13
2017-12-02T06:58:06.922Z,102770.72
2017-12-02T07:00:35.260Z,102764.06
2017-12-02T07:03:03.563Z,102763.30
2017-12-02T07:05:31.875Z,102764.52
2017-12-02T07:08:00.976Z,102767.66
2017-12-02T07:10:30.234Z,102763.91
2017-12-02T07:12:59.815Z,102764.06
2017-12-02T07:15:29.101Z,102763.80
2017-12-02T07:18:00.786Z,102768.28
2017-12-02T07:20:29.092Z,102765.96
2017-12-02T07:22:57.408Z,102774.52
2017-12-02T07:25:26.667Z,102762.45
2017-12-02T07:27:54.972Z,102769.03
2017-12-02T07:30:24.169Z,102769.08
2017-12-02T07:32:53.223Z,102775.06
2017-12-02T07:35:22.596Z,102770.58
2017-12-02T07:37:51.077Z,102774.64
2017-12-02T07:40:21.417Z,102777.44
2017-12-02T07:42:50.902Z,102785.90
2017-12-02T07:45:19.861Z,102783.16
2017-12-02T07:47:48.745Z,102782.11
2017-12-02T07:50:17.073Z,102782.80
2017-12-02T07:52:45.826Z,102779.84
2017-12-02T07:55:17.557Z,102780.31
2017-12-02T07:57:48.152Z,102784.16
2017-12-02T08:00:16.568Z,102790.76
2017-12-02T08:02:46.766Z,102792.52
2017-12-02T08:05:16.557Z,102801.39
2017-12-02T08:07:44.899Z,102804.05
2017-12-02T08:10:13.225Z,102804.58
2017-12-02T08:12:41.567Z,102802.82
2017-12-02T08:15:09.877Z,102810.08
2017-12-02T08:17:38.285Z,102816.80
2017-12-02T08:20:06.665Z,102814.30
2017-12-02T08:22:36.035Z,102819.96
2017-12-02T08:25:04.359Z,102823.27
2017-12-02T08:27:33.555Z,102823.33
2017-12-02T08:30:02.726Z,102827.53
2017-12-02T08:32:31.077Z,102832.02
2017-12-02T08:34:59.403Z,102826.63
2017-12-02T08:37:27.744Z,102826.05
2017-12-02T08:39:56.051Z,102825.49
2017-12-02T08:42:24.352Z,102833.10
2017-12-02T08:44:52.662Z,102825.66
2017-12-02T08:47:22.027Z,102824.47
2017-12-02T08:49:50.335Z,102828.59
2017-12-02T08:52:19.471Z,102830.65
2017-12-02T08:54:48.049Z,102832.37
2017-12-02T08:57:16.661Z,102833.34
2017-12-02T08:59:46.046Z,102825.70
2017-12-02T09:02:15.266Z,102837.57
2017-12-02T09:04:48.245Z,102832.21
2017-12-02T09:07:17.379Z,102828.77
2017-12-02T09:09:45.733Z,102848.28
2017-12-02T09:12:14.053Z,102844.31
2017-12-02T09:14:43.142Z,102854.73
2017-12-02T09:17:11.466Z,102860.86
2017-12-02T09:19:39.803Z,102869.04
2017-12-02T09:22:08.153Z,102869.98
2017-12-02T09:24:36.463Z,102871.66
2017-12-02T09:27:04.785Z,102877.34
2017-12-02T09:29:33.157Z,102876.84
2017-12-02T09:32:02.242Z,102876.36
2017-12-02T09:34:31.325Z,102872.36
2017-12-02T09:37:00.413Z,102874.90
2017-12-02T09:39:28.772Z,102882.88
2017-12-02T09:41:57.423Z,102877.18
2017-12-02T09:44:26.495Z,102872.95
2017-12-02T09:46:56.315Z,102875.39
2017-12-02T09:49:24.737Z,102869.50
2017-12-02T09:51:55.111Z,102878.69
2017-12-02T09:54:23.443Z,102875.62
2017-12-02T09:56:51.750Z,102871.66
2017-12-02T09:59:20.051Z,102881.38
2017-12-02T10:01:51.814Z,102873.75
2017-12-02T10:04:20.125Z,102873.22
2017-12-02T10:06:49.533Z,102878.39
2017-12-02T10:09:18.091Z,102885.44
2017-12-02T10:11:46.399Z,102880.08
2017-12-02T10:14:15.479Z,102878.23
2017-12-02T10:16:45.263Z,102872.14
2017-12-02T10:19:13.555Z,102872.53
2017-12-02T10:21:41.918Z,102868.53
2017-12-02T10:24:10.221Z,102858.33
2017-12-02T10:26:38.537Z,102864.61
2017-12-02T10:29:06.891Z,102861.88
2017-12-02T10:31:35.977Z,102859.19
2017-12-02T10:34:04.281Z,102866.11
2017-12-02T10:36:32.593Z,102864.48
2017-12-02T10:39:00.929Z,102863.90
2017-12-02T10:41:29.243Z,102862.50
2017-12-02T10:43:57.561Z,102855.19
2017-12-02T10:46:25.876Z,102848.77
2017-12-02T10:48:54.190Z,102851.75
2017-12-02T10:51:22.497Z,102857.64
2017-12-02T10:53:50.813Z,102858.86
2017-12-02T10:56:19.111Z,102856.66
2017-12-02T10:58:48.225Z,102854.80
2017-12-02T11:01:17.259Z,102856.68
2017-12-02T11:03:45.586Z,102862.77
2017-12-02T11:06:14.717Z,102862.82
2017-12-02T11:08:43.905Z,102859.11
2017-12-02T11:11:12.321Z,102859.39
2017-12-02T11:13:40.654Z,102846.45
2017-12-02T11:16:09.747Z,102843.91
2017-12-02T11:18:39.088Z,102831.81
2017-12-02T11:21:08.203Z,102828.43
2017-12-02T11:23:36.505Z,102824.33
2017-12-02T11:26:04.803Z,102832.00
2017-12-02T11:28:33.447Z,102836.69
2017-12-02T11:31:02.570Z,102840.01
2017-12-02T11:33:30.889Z,102840.85
2017-12-02T11:35:59.203Z,102843.30
2017-12-02T11:38:27.731Z,102849.86
2017-12-02T11:40:56.073Z,102846.58
2017-12-02T11:43:24.395Z,102840.44
2017-12-02T11:45:53.471Z,102844.27
2017-12-02T11:48:21.799Z,102835.22
2017-12-02T11:50:50.859Z,102828.62
2017-12-02T11:53:19.943Z,102820.72
2017-12-02T11:55:48.263Z,102815.78
2017-12-02T11:58:17.501Z,102808.48
2017-12-02T12:00:45.802Z,102816.80
2017-12-02T12:03:14.135Z,102805.57
2017-12-02T12:05:43.207Z,102796.77
2017-12-02T12:08:11.852Z,102799.39
2017-12-02T12:10:40.152Z,102799.11
2017-12-02T12:13:08.479Z,102796.39
2017-12-02T12:15:37.551Z,102800.42
2017-12-02T12:18:07.096Z,102811.88
2017-12-02T12:20:35.432Z,102806.67
2017-12-02T12:23:05.275Z,102818.01
2017-12-02T12:25:34.361Z,102802.38
2017-12-02T12:28:02.695Z,102787.64
2017-12-02T12:30:31.011Z,102785.02
2017-12-02T12:32:59.333Z,102794.62
2017-12-02T12:35:29.101Z,102797.81
2017-12-02T12:37:57.487Z,102807.00
2017-12-02T12:40:27.296Z,102810.87
2017-12-02T12:42:55.660Z,102812.71
2017-12-02T12:45:24.015Z,102814.71
2017-12-02T12:47:52.327Z,102809.72
2017-12-02T12:50:20.642Z,102797.52
2017-12-02T12:52:48.961Z,102788.42
2017-12-02T12:55:17.262Z,102796.88
2017-12-02T12:57:45.574Z,102791.16
2017-12-02T13:00:13.895Z,102795.73
2017-12-02T13:02:42.199Z,102793.75
2017-12-02T13:05:10.535Z,102782.70
2017-12-02T13:07:39.947Z,102787.00
2017-12-02T13:10:08.577Z,102788.29
2017-12-02T13:12:36.902Z,102794.83
2017-12-02T13:15:05.975Z,102788.48
2017-12-02T13:17:34.359Z,102782.06
2017-12-02T13:20:03.455Z,102780.58
2017-12-02T13:22:32.641Z,102787.36
2017-12-02T13:25:01.011Z,102776.13
2017-12-02T13:27:29.343Z,102772.52
2017-12-02T13:29:58.491Z,102769.93
2017-12-02T13:32:26.789Z,102765.86
2017-12-02T13:34:55.101Z,102771.88
2017-12-02T13:37:23.441Z,102781.05
2017-12-02T13:39:51.740Z,102780.58
2017-12-02T13:42:20.071Z,102773.44
2017-12-02T13:44:48.395Z,102769.47
2017-12-02T13:47:16.714Z,102770.79
2017-12-02T13:49:45.876Z,102772.61
2017-12-02T13:52:14.158Z,102770.31
2017-12-02T13:54:42.488Z,102773.94
2017-12-02T13:57:10.808Z,102766.53
2017-12-02T13:59:39.175Z,102767.33
2017-12-02T14:02:07.525Z,102766.40
2017-12-02T14:04:36.604Z,102759.39
2017-12-02T14:07:05.843Z,102762.45
2017-12-02T14:09:34.146Z,102755.02
2017-12-02T14:12:02.466Z,102766.88
2017-12-02T14:14:31.539Z,102755.13
2017-12-02T14:16:59.878Z,102757.45
2017-12-02T14:19:28.190Z,102754.55
2017-12-02T14:21:57.358Z,102754.86
2017-12-02T14:24:25.659Z,102759.47
2017-12-02T14:26:53.970Z,102761.61
2017-12-02T14:29:23.845Z,102759.98
2017-12-02T14:31:52.189Z,102764.72
2017-12-02T14:34:21.355Z,102764.30
2017-12-02T14:36:50.765Z,102761.84
2017-12-02T14:39:19.193Z,102774.07
2017-12-02T14:41:47.602Z,102775.05
2017-12-02T14:44:16.013Z,102769.44
2017-12-02T14:46:44.382Z,102769.11
2017-12-02T14:49:12.771Z,102771.84
2017-12-02T14:51:41.157Z,102766.44
2017-12-02T14:54:09.954Z,102777.08
2017-12-02T14:56:38.326Z,102766.28
2017-12-02T14:59:07.554Z,102761.77
2017-12-02T15:01:36.650Z,102761.22
2017-12-02T15:04:06.573Z,102743.08
2017-12-02T15:06:34.976Z,102755.23
2017-12-02T15:09:05.480Z,102760.02
2017-12-02T15:11:33.900Z,102756.83
2017-12-02T15:14:02.209Z,102761.67
2017-12-02T15:16:32.238Z,102754.17
2017-12-02T15:19:01.069Z,102767.84
2017-12-02T15:21:30.185Z,102761.88
2017-12-02T15:23:58.494Z,102767.84
2017-12-02T15:26:26.806Z,102769.73
2017-12-02T15:28:55.155Z,102764.98
2017-12-02T15:31:23.476Z,102763.79
2017-12-02T15:33:52.556Z,102761.93
2017-12-02T15:36:21.120Z,102751.78
2017-12-02T15:38:49.443Z,102762.48
2017-12-02T15:41:18.517Z,102761.91
2017-12-02T15:43:47.014Z,102756.91
2017-12-02T15:46:15.330Z,102750.64
2017-12-02T15:48:44.442Z,102756.86
2017-12-02T15:51:13.483Z,102752.78
2017-12-02T15:53:43.996Z,102760.18
2017-12-02T15:56:16.170Z,102761.22
2017-12-02T15:58:45.006Z,102762.06
2017-12-02T16:01:13.899Z,102768.12
2017-12-02T16:03:43.009Z,102766.97
2017-12-02T16:06:12.102Z,102761.90
2017-12-02T16:08:41.188Z,102762.48
2017-12-02T16:11:09.536Z,102752.10
2017-12-02T16:13:37.864Z,102758.46
2017-12-02T16:16:06.185Z,102754.24
2017-12-02T16:18:34.494Z,102754.60
2017-12-02T16:21:02.830Z,102759.95
2017-12-02T16:23:31.138Z,102760.86
2017-12-02T16:25:59.434Z,102761.70
2017-12-02T16:28:27.785Z,102759.92
2017-12-02T16:30:56.120Z,102762.77
2017-12-02T16:33:25.204Z,102755.63
2017-12-02T16:35:53.538Z,102755.88
2017-12-02T16:38:21.832Z,102768.48
2017-12-02T16:40:50.150Z,102761.19
2017-12-02T16:43:19.230Z,102763.19
2017-12-02T16:45:47.558Z,102758.61
2017-12-02T16:48:15.884Z,102757.47
2017-12-02T16:50:44.194Z,102756.83
2017-12-02T16:53:12.511Z,102762.70
2017-12-02T16:55:40.805Z,102760.80
2017-12-02T16:58:09.136Z,102763.13
2017-12-02T17:00:37.460Z,102762.77
2017-12-02T17:03:05.836Z,102758.50
2017-12-02T17:05:34.326Z,102764.71
2017-12-02T17:08:02.657Z,102763.13
2017-12-02T17:10:30.958Z,102768.75
2017-12-02T17:13:00.023Z,102773.48
2017-12-02T17:15:28.370Z,102775.23
2017-12-02T17:17:56.664Z,102776.50
2017-12-02T17:20:25.104Z,102776.38
2017-12-02T17:22:55.660Z,102772.61
2017-12-02T17:25:24.386Z,102771.09
2017-12-02T17:27:54.024Z,102770.02
2017-12-02T17:30:23.760Z,102764.19
2017-12-02T17:32:52.074Z,102774.47
2017-12-02T17:35:20.536Z,102769.70
2017-12-02T17:37:48.990Z,102770.66
2017-12-02T17:40:17.366Z,102766.64
2017-12-02T17:42:48.182Z,102768.08
2017-12-02T17:45:17.652Z,102765.41
2017-12-02T17:47:46.944Z,102765.40
2017-12-02T17:50:15.255Z,102764.66
2017-12-02T17:52:46.316Z,102770.77
2017-12-02T17:55:15.188Z,102768.71
2017-12-02T17:57:43.496Z,102775.16
2017-12-02T18:00:12.711Z,102780.92
2017-12-02T18:02:41.880Z,102775.86
2017-12-02T18:05:12.137Z,102773.80
2017-12-02T18:07:40.893Z,102771.02
2017-12-02T18:10:09.194Z,102769.16
2017-12-02T18:12:39.269Z,102772.76
2017-12-02T18:15:07.562Z,102776.36
2017-12-02T18:17:36.439Z,102780.16
2017-12-02T18:20:04.789Z,102780.47
2017-12-02T18:22:33.145Z,102781.46
2017-12-02T18:25:01.466Z,102774.59
2017-12-02T18:27:34.200Z,102773.22
2017-12-02T18:30:04.912Z,102773.63
2017-12-02T18:32:38.270Z,102769.70
2017-12-02T18:35:07.377Z,102768.87
2017-12-02T18:37:39.945Z,102773.33
2017-12-02T18:40:09.046Z,102770.17
2017-12-02T18:42:38.277Z,102774.08
2017-12-02T18:45:06.841Z,102774.39
2017-12-02T18:47:35.906Z,102772.70
2017-12-02T18:50:05.077Z,102777.29
2017-12-02T18:52:33.394Z,102775.74
2017-12-02T18:55:01.714Z,102772.81
2017-12-02T18:57:30.031Z,102768.22
2017-12-02T18:59:58.366Z,102766.09
2017-12-02T19:02:26.684Z,102774.59
2017-12-02T19:04:54.989Z,102770.84
2017-12-02T19:07:23.321Z,102769.89
2017-12-02T19:09:51.646Z,102766.83
2017-12-02T19:12:20.077Z,102768.09
2017-12-02T19:14:48.423Z,102773.47
2017-12-02T19:17:17.563Z,102769.61
2017-12-02T19:19:45.884Z,102767.25
2017-12-02T19:22:14.229Z,102765.53
2017-12-02T19:24:43.381Z,102767.42
2017-12-02T19:27:11.693Z,102767.98
2017-12-02T19:29:40.048Z,102759.73
2017-12-02T19:32:09.140Z,102767.35
2017-12-02T19:34:38.341Z,102762.70
2017-12-02T19:37:07.407Z,102764.50
2017-12-02T19:39:35.761Z,102767.12
2017-12-02T19:42:04.102Z,102770.42
2017-12-02T19:44:34.053Z,102767.49
2017-12-02T19:47:02.559Z,102756.26
2017-12-02T19:49:30.910Z,102755.11
2017-12-02T19:52:00.073Z,102755.33
2017-12-02T19:54:28.424Z,102753.00
2017-12-02T19:56:56.876Z,102745.97
2017-12-02T19:59:27.595Z,102745.39
2017-12-02T20:01:56.188Z,102741.33
2017-12-02T20:04:25.362Z,102738.34
2017-12-02T20:06:54.421Z,102750.44
2017-12-02T20:09:22.765Z,102756.09
2017-12-02T20:11:51.841Z,102756.39
2017-12-02T20:14:20.155Z,102743.22
2017-12-02T20:16:49.450Z,102749.83
2017-12-02T20:19:18.524Z,102746.52
2017-12-02T20:21:46.843Z,102743.16
2017-12-02T20:24:15.198Z,102744.77
2017-12-02T20:26:44.321Z,102750.12
2017-12-02T20:29:12.629Z,102751.70
2017-12-02T20:31:40.942Z,102752.29
2017-12-02T20:34:09.383Z,102751.98
2017-12-02T20:36:37.877Z,102752.06
2017-12-02T20:39:06.215Z,102748.25
2017-12-02T20:41:35.327Z,102751.33
2017-12-02T20:44:04.421Z,102750.88
2017-12-02T20:46:33.484Z,102749.70
2017-12-02T20:49:01.809Z,102746.89
2017-12-02T20:51:30.177Z,102752.13
2017-12-02T20:53:59.241Z,102753.55
2017-12-02T20:56:29.069Z,102742.62
2017-12-02T20:58:57.362Z,102735.10
2017-12-02T21:01:26.468Z,102734.22
2017-12-02T21:03:54.743Z,102730.88
2017-12-02T21:06:23.869Z,102734.62
2017-12-02T21:08:53.223Z,102733.83
2017-12-02T21:11:21.714Z,102725.84
2017-12-02T21:13:50.795Z,102732.47
2017-12-02T21:16:19.151Z,102724.03
2017-12-02T21:18:47.542Z,102722.94
2017-12-02T21:21:16.961Z,102722.42
2017-12-02T21:23:45.415Z,102728.45
2017-12-02T21:26:13.806Z,102723.50
2017-12-02T21:28:42.213Z,102715.58
2017-12-02T21:31:10.538Z,102717.27
2017-12-02T21:33:39.645Z,102721.78
2017-12-02T21:36:08.779Z,102723.62
2017-12-02T21:38:37.077Z,102714.27
2017-12-02T21:41:05.415Z,102713.92
2017-12-02T21:43:33.723Z,102707.87
2017-12-02T21:46:02.027Z,102705.37
2017-12-02T21:48:31.093Z,102703.03
2017-12-02T21:50:59.405Z,102695.64
2017-12-02T21:53:27.708Z,102693.84
2017-12-02T21:55:56.948Z,102694.73
2017-12-02T21:58:25.268Z,102694.31
2017-12-02T22:00:53.579Z,102693.47
2017-12-02T22:03:21.890Z,102696.38
2017-12-02T22:05:51.048Z,102699.44
2017-12-02T22:08:20.139Z,102698.12
2017-12-02T22:10:49.226Z,102697.24
2017-12-02T22:13:18.311Z,102690.38
2017-12-02T22:15:46.617Z,102689.88
2017-12-02T22:18:14.962Z,102684.02
2017-12-02T22:20:46.655Z,102684.50
2017-12-02T22:23:14.967Z,102684.08
2017-12-02T22:25:43.297Z,102682.08
2017-12-02T22:28:11.635Z,102684.30
2017-12-02T22:30:39.949Z,102680.45
2017-12-02T22:33:08.275Z,102674.23
2017-12-02T22:35:37.363Z,102669.31
2017-12-02T22:38:05.679Z,102677.95
2017-12-02T22:40:34.048Z,102684.11
2017-12-02T22:43:02.371Z,102681.07
2017-12-02T22:45:30.700Z,102675.05
2017-12-02T22:47:59.795Z,102671.14
2017-12-02T22:50:28.876Z,102671.92
2017-12-02T22:52:57.313Z,102668.83
2017-12-02T22:55:25.628Z,102671.41
2017-12-02T22:57:53.928Z,102671.04
2017-12-02T23:00:23.007Z,102668.23
2017-12-02T23:02:51.323Z,102673.22
2017-12-02T23:05:19.660Z,102674.70
2017-12-02T23:07:47.985Z,102669.11
2017-12-02T23:10:16.309Z,102672.12
2017-12-02T23:12:44.641Z,102666.61
2017-12-02T23:15:13.729Z,102664.80
2017-12-02T23:17:42.856Z,102665.16
2017-12-02T23:20:11.196Z,102662.41
2017-12-02T23:22:40.999Z,102659.28
2017-12-02T23:25:09.337Z,102654.85
2017-12-02T23:27:37.641Z,102655.33
2017-12-02T23:30:05.961Z,102653.94
2017-12-02T23:32:34.283Z,102651.71
2017-12-02T23:35:02.607Z,102654.11
2017-12-02T23:37:30.942Z,102656.47
2017-12-02T23:40:00.142Z,102658.33
2017-12-02T23:42:28.559Z,102655.38
2017-12-02T23:44:56.877Z,102653.82
2017-12-02T23:47:25.968Z,102658.86
2017-12-02T23:49:54.282Z,102649.72
2017-12-02T23:52:23.404Z,102643.00
2017-12-02T23:54:51.731Z,102636.14
2017-12-02T23:57:20.816Z,102632.29
2017-12-02T23:59:49.884Z,102628.67
